sensor_id;sensor_type;location;lat;lon;timestamp;temperature;humidity
19106;DHT22;9685;54.338;18.672;2023-08-06T14:30:25;27.80;99.90
19106;DHT22;9685;54.338;18.672;2023-08-06T14:32:52;27.90;99.90
19106;DHT22;9685;54.338;18.672;2023-08-06T14:35:19;28.00;99.90
19106;DHT22;9685;54.338;18.672;2023-08-06T14:37:46;28.10;99.90
19106;DHT22;9685;54.338;18.672;2023-08-06T14:40:13;28.10;99.90
19106;DHT22;9685;54.338;18.672;2023-08-06T14:42:40;28.00;99.90
19106;DHT22;9685;54.338;18.672;2023-08-06T14:45:08;27.80;99.90
19106;DHT22;9685;54.338;18.672;2023-08-06T14:47:36;27.60;99.90
19106;DHT22;9685;54.338;18.672;2023-08-06T14:50:03;27.50;99.90
19106;DHT22;9685;54.338;18.672;2023-08-06T14:52:30;27.30;99.90
19106;DHT22;9685;54.338;18.672;2023-08-06T14:54:57;27.20;99.90
19106;DHT22;9685;54.338;18.672;2023-08-06T14:57:24;27.10;99.90
19106;DHT22;9685;54.338;18.672;2023-08-06T14:59:53;27.10;99.90
19106;DHT22;9685;54.338;18.672;2023-08-06T15:02:20;26.90;1.00
19106;DHT22;9685;54.338;18.672;2023-08-06T15:04:49;26.80;1.00
19106;DHT22;9685;54.338;18.672;2023-08-06T15:07:16;26.70;1.00
19106;DHT22;9685;54.338;18.672;2023-08-06T15:09:44;26.70;1.00
19106;DHT22;9685;54.338;18.672;2023-08-06T15:12:11;26.70;1.00
19106;DHT22;9685;54.338;18.672;2023-08-06T15:14:38;26.70;1.00
19106;DHT22;9685;54.338;18.672;2023-08-06T15:17:05;26.60;1.00
19106;DHT22;9685;54.338;18.672;2023-08-06T15:19:32;26.60;1.00
19106;DHT22;9685;54.338;18.672;2023-08-06T15:22:00;26.60;1.00
19106;DHT22;9685;54.338;18.672;2023-08-06T15:24:27;26.40;1.00
19106;DHT22;9685;54.338;18.672;2023-08-06T15:26:54;26.30;1.00
19106;DHT22;9685;54.338;18.672;2023-08-06T15:29:21;26.20;1.00
19106;DHT22;9685;54.338;18.672;2023-08-06T15:31:48;25.90;1.00
19106;DHT22;9685;54.338;18.672;2023-08-06T15:34:15;25.80;1.00
19106;DHT22;9685;54.338;18.672;2023-08-06T15:36:42;25.70;1.00
19106;DHT22;9685;54.338;18.672;2023-08-06T15:39:10;25.60;1.00
19106;DHT22;9685;54.338;18.672;2023-08-06T15:41:37;25.60;42.00
19106;DHT22;9685;54.338;18.672;2023-08-06T15:44:04;25.60;99.90
19106;DHT22;9685;54.338;18.672;2023-08-06T15:46:31;25.30;99.90
19106;DHT22;9685;54.338;18.672;2023-08-06T15:49:00;25.30;99.90
19106;DHT22;9685;54.338;18.672;2023-08-06T15:51:27;25.30;99.90
19106;DHT22;9685;54.338;18.672;2023-08-06T15:53:54;25.40;99.90
19106;DHT22;9685;54.338;18.672;2023-08-06T15:56:22;25.40;99.90
19106;DHT22;9685;54.338;18.672;2023-08-06T15:58:49;25.30;99.90
19106;DHT22;9685;54.338;18.672;2023-08-06T16:01:16;25.30;99.90
19106;DHT22;9685;54.338;18.672;2023-08-06T16:03:51;25.30;99.90
19106;DHT22;9685;54.338;18.672;2023-08-06T16:06:18;25.20;99.90
19106;DHT22;9685;54.338;18.672;2023-08-06T16:08:45;25.10;1.00
19106;DHT22;9685;54.338;18.672;2023-08-06T16:11:12;24.80;1.00
19106;DHT22;9685;54.338;18.672;2023-08-06T16:13:40;24.70;1.00
19106;DHT22;9685;54.338;18.672;2023-08-06T16:16:07;24.50;99.90
19106;DHT22;9685;54.338;18.672;2023-08-06T16:18:34;24.40;99.90
19106;DHT22;9685;54.338;18.672;2023-08-06T16:21:01;24.40;1.00
19106;DHT22;9685;54.338;18.672;2023-08-06T16:23:28;24.40;1.00
19106;DHT22;9685;54.338;18.672;2023-08-06T16:25:56;24.50;1.00
19106;DHT22;9685;54.338;18.672;2023-08-06T16:28:23;24.60;99.90
19106;DHT22;9685;54.338;18.672;2023-08-06T16:30:51;24.60;99.90
19106;DHT22;9685;54.338;18.672;2023-08-06T16:33:20;24.60;99.90
19106;DHT22;9685;54.338;18.672;2023-08-06T16:35:47;24.70;99.90
19106;DHT22;9685;54.338;18.672;2023-08-06T16:38:14;24.80;4.00
19106;DHT22;9685;54.338;18.672;2023-08-06T16:40:42;24.90;1.00
19106;DHT22;9685;54.338;18.672;2023-08-06T16:43:17;24.90;1.00
19106;DHT22;9685;54.338;18.672;2023-08-06T16:45:44;25.00;1.00
19106;DHT22;9685;54.338;18.672;2023-08-06T16:48:13;25.00;1.00
19106;DHT22;9685;54.338;18.672;2023-08-06T16:50:39;25.00;1.00
19106;DHT22;9685;54.338;18.672;2023-08-06T16:53:07;25.00;1.00
19106;DHT22;9685;54.338;18.672;2023-08-06T16:55:33;24.90;1.00
19106;DHT22;9685;54.338;18.672;2023-08-06T16:58:00;24.90;99.90
19106;DHT22;9685;54.338;18.672;2023-08-06T17:00:27;24.90;99.90
19106;DHT22;9685;54.338;18.672;2023-08-06T17:02:54;25.00;10.60
19106;DHT22;9685;54.338;18.672;2023-08-06T17:05:23;25.00;1.00
19106;DHT22;9685;54.338;18.672;2023-08-06T17:07:50;25.10;1.00
19106;DHT22;9685;54.338;18.672;2023-08-06T17:10:18;25.20;1.00
19106;DHT22;9685;54.338;18.672;2023-08-06T17:12:45;25.30;1.00
19106;DHT22;9685;54.338;18.672;2023-08-06T17:15:14;25.30;1.00
19106;DHT22;9685;54.338;18.672;2023-08-06T17:17:41;25.40;1.00
19106;DHT22;9685;54.338;18.672;2023-08-06T17:20:08;25.50;1.00
19106;DHT22;9685;54.338;18.672;2023-08-06T17:22:36;25.40;99.90
19106;DHT22;9685;54.338;18.672;2023-08-06T17:25:04;25.20;1.00
19106;DHT22;9685;54.338;18.672;2023-08-06T17:27:31;25.00;1.00
19106;DHT22;9685;54.338;18.672;2023-08-06T17:29:58;24.90;1.00
19106;DHT22;9685;54.338;18.672;2023-08-06T17:32:25;24.90;1.00
19106;DHT22;9685;54.338;18.672;2023-08-06T17:34:52;24.90;1.00
19106;DHT22;9685;54.338;18.672;2023-08-06T17:37:19;24.90;1.00
19106;DHT22;9685;54.338;18.672;2023-08-06T17:39:47;24.90;1.00
19106;DHT22;9685;54.338;18.672;2023-08-06T17:42:14;24.90;1.00
19106;DHT22;9685;54.338;18.672;2023-08-06T17:44:41;24.90;1.00
19106;DHT22;9685;54.338;18.672;2023-08-06T17:47:08;24.90;1.00
19106;DHT22;9685;54.338;18.672;2023-08-06T17:49:35;24.90;1.00
19106;DHT22;9685;54.338;18.672;2023-08-06T17:52:02;24.90;1.00
19106;DHT22;9685;54.338;18.672;2023-08-06T17:54:29;24.90;1.00
19106;DHT22;9685;54.338;18.672;2023-08-06T17:56:58;24.90;1.00
19106;DHT22;9685;54.338;18.672;2023-08-06T17:59:24;24.90;1.00
19106;DHT22;9685;54.338;18.672;2023-08-06T18:01:51;24.70;1.00
19106;DHT22;9685;54.338;18.672;2023-08-06T18:04:18;24.60;1.00
19106;DHT22;9685;54.338;18.672;2023-08-06T18:06:45;24.50;1.00
19106;DHT22;9685;54.338;18.672;2023-08-06T18:09:12;24.50;1.00
19106;DHT22;9685;54.338;18.672;2023-08-06T18:11:39;24.50;1.00
19106;DHT22;9685;54.338;18.672;2023-08-06T18:14:07;24.50;1.00
19106;DHT22;9685;54.338;18.672;2023-08-06T18:16:34;24.40;1.00
19106;DHT22;9685;54.338;18.672;2023-08-06T18:19:01;24.20;1.00
19106;DHT22;9685;54.338;18.672;2023-08-06T18:21:28;24.10;1.00
19106;DHT22;9685;54.338;18.672;2023-08-06T18:23:55;24.00;1.00
19106;DHT22;9685;54.338;18.672;2023-08-06T18:26:22;23.80;46.50
19106;DHT22;9685;54.338;18.672;2023-08-06T18:28:50;23.70;99.90
19106;DHT22;9685;54.338;18.672;2023-08-06T18:31:18;23.50;99.90
19106;DHT22;9685;54.338;18.672;2023-08-06T18:33:45;23.40;99.90
19106;DHT22;9685;54.338;18.672;2023-08-06T18:36:12;23.30;99.90
19106;DHT22;9685;54.338;18.672;2023-08-06T18:38:39;23.20;99.90
19106;DHT22;9685;54.338;18.672;2023-08-06T18:41:07;23.10;99.90
19106;DHT22;9685;54.338;18.672;2023-08-06T18:43:34;23.10;99.90
19106;DHT22;9685;54.338;18.672;2023-08-06T18:46:01;23.00;1.00
19106;DHT22;9685;54.338;18.672;2023-08-06T18:48:30;23.00;1.00
19106;DHT22;9685;54.338;18.672;2023-08-06T18:50:57;23.00;1.00
19106;DHT22;9685;54.338;18.672;2023-08-06T18:53:24;22.90;1.00
19106;DHT22;9685;54.338;18.672;2023-08-06T18:55:51;22.80;1.00
19106;DHT22;9685;54.338;18.672;2023-08-06T18:58:18;22.80;99.90
19106;DHT22;9685;54.338;18.672;2023-08-06T19:00:45;22.70;99.90
19106;DHT22;9685;54.338;18.672;2023-08-06T19:03:12;22.70;99.90
19106;DHT22;9685;54.338;18.672;2023-08-06T19:05:41;22.60;1.00
19106;DHT22;9685;54.338;18.672;2023-08-06T19:08:08;22.60;1.00
19106;DHT22;9685;54.338;18.672;2023-08-06T19:10:37;22.50;99.90
19106;DHT22;9685;54.338;18.672;2023-08-06T19:13:07;22.50;99.90
19106;DHT22;9685;54.338;18.672;2023-08-06T19:15:35;22.40;1.00
19106;DHT22;9685;54.338;18.672;2023-08-06T19:18:02;22.40;1.00
19106;DHT22;9685;54.338;18.672;2023-08-06T19:20:29;22.40;1.00
19106;DHT22;9685;54.338;18.672;2023-08-06T19:22:58;22.30;99.90
19106;DHT22;9685;54.338;18.672;2023-08-06T19:25:25;22.20;99.90
19106;DHT22;9685;54.338;18.672;2023-08-06T19:27:52;22.30;99.90
19106;DHT22;9685;54.338;18.672;2023-08-06T19:30:19;22.20;1.00
19106;DHT22;9685;54.338;18.672;2023-08-06T19:32:46;22.20;99.90
19106;DHT22;9685;54.338;18.672;2023-08-06T19:35:13;22.10;99.90
19106;DHT22;9685;54.338;18.672;2023-08-06T19:37:40;22.10;1.00
19106;DHT22;9685;54.338;18.672;2023-08-06T19:40:09;22.10;1.00
19106;DHT22;9685;54.338;18.672;2023-08-06T19:42:39;22.10;1.00
19106;DHT22;9685;54.338;18.672;2023-08-06T19:45:07;22.10;1.00
19106;DHT22;9685;54.338;18.672;2023-08-06T19:47:34;22.10;1.00
19106;DHT22;9685;54.338;18.672;2023-08-06T19:50:01;22.00;1.00
19106;DHT22;9685;54.338;18.672;2023-08-06T19:52:28;22.00;1.00
19106;DHT22;9685;54.338;18.672;2023-08-06T19:54:55;22.00;99.90
19106;DHT22;9685;54.338;18.672;2023-08-06T19:57:24;22.00;1.00
19106;DHT22;9685;54.338;18.672;2023-08-06T19:59:51;21.90;1.00
19106;DHT22;9685;54.338;18.672;2023-08-06T20:02:18;21.90;99.90
19106;DHT22;9685;54.338;18.672;2023-08-06T20:04:46;21.90;99.90
19106;DHT22;9685;54.338;18.672;2023-08-06T20:07:13;21.90;99.90
19106;DHT22;9685;54.338;18.672;2023-08-06T20:09:40;21.80;96.00
19106;DHT22;9685;54.338;18.672;2023-08-06T20:12:07;21.70;1.00
19106;DHT22;9685;54.338;18.672;2023-08-06T20:14:36;21.80;1.00
19106;DHT22;9685;54.338;18.672;2023-08-06T20:17:05;21.80;99.90
19106;DHT22;9685;54.338;18.672;2023-08-06T20:19:33;21.70;99.90
19106;DHT22;9685;54.338;18.672;2023-08-06T20:22:00;21.60;99.90
19106;DHT22;9685;54.338;18.672;2023-08-06T20:24:27;21.50;99.90
19106;DHT22;9685;54.338;18.672;2023-08-06T20:26:54;21.50;99.90
19106;DHT22;9685;54.338;18.672;2023-08-06T20:29:22;21.40;58.10
19106;DHT22;9685;54.338;18.672;2023-08-06T20:31:50;21.30;99.90
19106;DHT22;9685;54.338;18.672;2023-08-06T20:34:17;21.30;99.90
19106;DHT22;9685;54.338;18.672;2023-08-06T20:36:44;21.30;99.90
19106;DHT22;9685;54.338;18.672;2023-08-06T20:39:11;21.20;99.90
19106;DHT22;9685;54.338;18.672;2023-08-06T20:41:38;21.20;99.90
19106;DHT22;9685;54.338;18.672;2023-08-06T20:44:05;21.20;1.00
19106;DHT22;9685;54.338;18.672;2023-08-06T20:46:32;21.20;1.00
19106;DHT22;9685;54.338;18.672;2023-08-06T20:49:00;21.10;1.00
19106;DHT22;9685;54.338;18.672;2023-08-06T20:51:27;21.10;1.00
19106;DHT22;9685;54.338;18.672;2023-08-06T20:53:54;21.10;1.00
19106;DHT22;9685;54.338;18.672;2023-08-06T20:56:21;21.00;1.00
19106;DHT22;9685;54.338;18.672;2023-08-06T20:58:48;21.00;1.00
19106;DHT22;9685;54.338;18.672;2023-08-06T21:01:15;21.00;1.00
19106;DHT22;9685;54.338;18.672;2023-08-06T21:03:42;20.90;99.90
19106;DHT22;9685;54.338;18.672;2023-08-06T21:06:10;20.90;99.90
19106;DHT22;9685;54.338;18.672;2023-08-06T21:08:37;20.90;99.90
19106;DHT22;9685;54.338;18.672;2023-08-06T21:11:04;20.80;99.90
19106;DHT22;9685;54.338;18.672;2023-08-06T21:13:32;20.70;99.90
19106;DHT22;9685;54.338;18.672;2023-08-06T21:16:02;20.70;99.90
19106;DHT22;9685;54.338;18.672;2023-08-06T21:18:30;20.70;99.90
19106;DHT22;9685;54.338;18.672;2023-08-06T21:20:58;20.70;99.90
19106;DHT22;9685;54.338;18.672;2023-08-06T21:23:27;20.60;99.90
19106;DHT22;9685;54.338;18.672;2023-08-06T21:25:56;20.60;99.90
19106;DHT22;9685;54.338;18.672;2023-08-06T21:28:23;20.60;99.90
19106;DHT22;9685;54.338;18.672;2023-08-06T21:30:54;20.50;99.90
19106;DHT22;9685;54.338;18.672;2023-08-06T21:33:23;20.50;99.90
19106;DHT22;9685;54.338;18.672;2023-08-06T21:35:50;20.50;99.90
19106;DHT22;9685;54.338;18.672;2023-08-06T21:38:17;20.50;1.00
19106;DHT22;9685;54.338;18.672;2023-08-06T21:40:45;20.50;1.00
19106;DHT22;9685;54.338;18.672;2023-08-06T21:43:12;20.40;22.40
19106;DHT22;9685;54.338;18.672;2023-08-06T21:45:39;20.40;1.00
19106;DHT22;9685;54.338;18.672;2023-08-06T21:48:06;20.30;44.10
19106;DHT22;9685;54.338;18.672;2023-08-06T21:50:33;20.30;99.90
19106;DHT22;9685;54.338;18.672;2023-08-06T21:53:00;20.30;15.90
19106;DHT22;9685;54.338;18.672;2023-08-06T21:55:29;20.20;99.90
19106;DHT22;9685;54.338;18.672;2023-08-06T21:57:58;20.20;99.90
19106;DHT22;9685;54.338;18.672;2023-08-06T22:00:25;20.20;99.90
19106;DHT22;9685;54.338;18.672;2023-08-06T22:02:52;20.10;99.90
19106;DHT22;9685;54.338;18.672;2023-08-06T22:05:19;20.00;1.00
19106;DHT22;9685;54.338;18.672;2023-08-06T22:07:46;20.10;99.90
19106;DHT22;9685;54.338;18.672;2023-08-06T22:10:13;20.00;99.90
19106;DHT22;9685;54.338;18.672;2023-08-06T22:12:40;19.90;1.00
19106;DHT22;9685;54.338;18.672;2023-08-06T22:15:09;19.90;1.00
19106;DHT22;9685;54.338;18.672;2023-08-06T22:17:36;19.90;99.90
19106;DHT22;9685;54.338;18.672;2023-08-06T22:20:04;19.70;1.00
19106;DHT22;9685;54.338;18.672;2023-08-06T22:22:31;19.70;1.00
19106;DHT22;9685;54.338;18.672;2023-08-06T22:25:04;19.60;1.00
19106;DHT22;9685;54.338;18.672;2023-08-06T22:27:31;19.50;1.00
19106;DHT22;9685;54.338;18.672;2023-08-06T22:29:58;19.50;1.00
19106;DHT22;9685;54.338;18.672;2023-08-06T22:32:26;19.30;99.90
19106;DHT22;9685;54.338;18.672;2023-08-06T22:34:55;19.30;1.00
19106;DHT22;9685;54.338;18.672;2023-08-06T22:37:22;19.20;1.00
19106;DHT22;9685;54.338;18.672;2023-08-06T22:39:49;19.20;1.00
19106;DHT22;9685;54.338;18.672;2023-08-06T22:42:16;19.10;99.90
19106;DHT22;9685;54.338;18.672;2023-08-06T22:44:43;19.00;1.00
19106;DHT22;9685;54.338;18.672;2023-08-06T22:47:10;18.90;1.00
19106;DHT22;9685;54.338;18.672;2023-08-06T22:49:38;18.90;1.00
19106;DHT22;9685;54.338;18.672;2023-08-06T22:52:06;18.90;1.00
19106;DHT22;9685;54.338;18.672;2023-08-06T22:54:33;18.80;1.00
19106;DHT22;9685;54.338;18.672;2023-08-06T22:57:00;18.90;1.00
19106;DHT22;9685;54.338;18.672;2023-08-06T22:59:27;18.80;41.30
19106;DHT22;9685;54.338;18.672;2023-08-06T23:01:54;18.80;1.00
19106;DHT22;9685;54.338;18.672;2023-08-06T23:04:21;18.70;1.00
19106;DHT22;9685;54.338;18.672;2023-08-06T23:06:49;18.70;1.00
19106;DHT22;9685;54.338;18.672;2023-08-06T23:09:16;18.60;1.00
19106;DHT22;9685;54.338;18.672;2023-08-06T23:11:43;18.60;99.90
19106;DHT22;9685;54.338;18.672;2023-08-06T23:14:09;18.60;99.90
19106;DHT22;9685;54.338;18.672;2023-08-06T23:16:36;18.60;99.90
19106;DHT22;9685;54.338;18.672;2023-08-06T23:19:03;18.60;1.00
19106;DHT22;9685;54.338;18.672;2023-08-06T23:21:30;18.50;1.00
19106;DHT22;9685;54.338;18.672;2023-08-06T23:23:59;18.50;1.00
19106;DHT22;9685;54.338;18.672;2023-08-06T23:26:26;18.50;1.00
19106;DHT22;9685;54.338;18.672;2023-08-06T23:28:53;18.50;1.00
19106;DHT22;9685;54.338;18.672;2023-08-06T23:31:20;18.50;1.00
19106;DHT22;9685;54.338;18.672;2023-08-06T23:33:47;18.40;1.00
19106;DHT22;9685;54.338;18.672;2023-08-06T23:36:14;18.40;1.00
19106;DHT22;9685;54.338;18.672;2023-08-06T23:38:41;18.30;99.90
19106;DHT22;9685;54.338;18.672;2023-08-06T23:41:09;18.30;99.90
19106;DHT22;9685;54.338;18.672;2023-08-06T23:43:36;18.20;99.90
19106;DHT22;9685;54.338;18.672;2023-08-06T23:46:03;18.30;99.90
19106;DHT22;9685;54.338;18.672;2023-08-06T23:48:30;18.20;3.30
19106;DHT22;9685;54.338;18.672;2023-08-06T23:50:57;18.20;1.00
19106;DHT22;9685;54.338;18.672;2023-08-06T23:53:24;18.20;1.00
19106;DHT22;9685;54.338;18.672;2023-08-06T23:55:50;18.10;1.00
19106;DHT22;9685;54.338;18.672;2023-08-06T23:58:19;18.10;1.00
